Rye Valley, Oregon
Current Conditions -  °F | °C
As of 9:53 PM on Thursday 18 Dec 2014 (Local Time) from KBKE Reporting Station
Overcast Overcast  
Wind Chill: 29°   Ceiling: 8000
Heat Index: 38°   Visibility: 10mi
Dew Point: 32°   Wind: 16mph
Humidity: 79%   Direction: 90°E
Pressure: 30.01"   Gusts: NA
Location:  44.4221°N, 117.451°W
Report Text: KBKE 190553Z AUTO 09014KT 10SM FEW035 OVC080 03/00 A3001 RMK AO2 SLPNO 60000 T00330000 10039 20028 $
Loading
Personal Weather Stations






























Interactive Weather Map New forecast layout! Learn more

10-Day Weather Forecast

Advertisements
Track Severe Weather on mobile